Аэропорт
Иссык-Куль (UCFL)

 UCFL
ЗЦ Центральная Азия
Бишкек (UCFM)
Бишкек (UCFM)
 42.58830, 76.71330  / 5425 ft

 UCFL 190400Z 03002MPS 9999 SCT022CB BKN100 01/M04 Q1016 R07/CLRD95
 TAF UCFL 190141Z 1903/1912 34003G08MPS 9999 SCT020CB BKN100 BECMG 1905/1906 14003G08MPS
показать схемы



2020 © VATRUS division (Privacy Policy)